Time;durP1;ratioP1;P1;durP2;ratioP2;P2;SDS_P1;SDS_P2;PMS_P1;PMS_P2;Temp;Humidity;BMP_temperature;BMP_pressure;BME280_temperature;BME280_humidity;BME280_pressure;Samples;Min_cycle;Max_cycle;Signal;HPM_P1;HPM_P2
2022/10/09 00:01:14;;;;;;;2.80;1.10;;;15.10;64.70;;;;;;5035646;28;20180;-71
2022/10/09 00:03:43;;;;;;;4.43;1.10;;;15.10;63.70;;;;;;5038222;28;20184;-72
2022/10/09 00:06:15;;;;;;;1.67;1.10;;;14.80;63.80;;;;;;5040005;28;20180;-73
2022/10/09 00:08:43;;;;;;;3.40;1.20;;;14.80;63.60;;;;;;5050580;28;20229;-73
2022/10/09 00:11:17;;;;;;;3.40;1.20;;;14.80;63.30;;;;;;5049209;28;20188;-72
2022/10/09 00:13:45;;;;;;;4.20;1.40;;;15.10;64.50;;;;;;5050441;28;20210;-74
2022/10/09 00:16:14;;;;;;;2.07;1.03;;;15.50;63.70;;;;;;5055477;28;20204;-72
2022/10/09 00:18:43;;;;;;;1.93;1.20;;;15.50;61.80;;;;;;5055225;28;20176;-71
2022/10/09 00:21:25;;;;;;;3.67;1.10;;;15.20;62.80;;;;;;5055583;28;20188;-71
2022/10/09 00:23:55;;;;;;;2.57;1.10;;;15.30;62.30;;;;;;5045822;28;20702;-71
2022/10/09 00:26:23;;;;;;;3.33;1.10;;;15.50;63.80;;;;;;5043782;28;20274;-72
2022/10/09 00:28:51;;;;;;;2.30;1.10;;;15.70;61.50;;;;;;5051702;28;20169;-70
2022/10/09 00:31:18;;;;;;;4.17;1.10;;;15.80;61.10;;;;;;5055285;28;20188;-70
2022/10/09 00:33:46;;;;;;;3.50;1.30;;;15.80;60.30;;;;;;5046343;28;20250;-71
2022/10/09 00:36:17;;;;;;;3.63;1.00;;;15.90;60.30;;;;;;5050137;28;20261;-72
2022/10/09 00:38:45;;;;;;;3.00;1.10;;;16.00;60.10;;;;;;5052180;28;20176;-73
2022/10/09 00:41:19;;;;;;;3.30;1.70;;;15.80;61.00;;;;;;5045271;28;20180;-71
2022/10/09 00:43:48;;;;;;;4.47;1.20;;;16.10;61.80;;;;;;5049559;28;20217;-70
2022/10/09 00:46:46;;;;;;;3.17;1.00;;;16.10;58.80;;;;;;5042667;28;20651;-71
2022/10/09 00:49:28;;;;;;;2.27;1.10;;;15.90;60.60;;;;;;5053506;28;20209;-71
2022/10/09 00:51:59;;;;;;;5.07;1.30;;;16.20;59.40;;;;;;5054868;28;20181;-72
2022/10/09 00:54:30;;;;;;;5.87;1.30;;;16.10;59.50;;;;;;5054978;28;20762;-71
2022/10/09 00:56:57;;;;;;;6.83;1.70;;;16.50;59.50;;;;;;5054766;28;20668;-72
2022/10/09 00:59:25;;;;;;;4.43;1.50;;;16.60;59.30;;;;;;5054731;28;20178;-70
2022/10/09 01:01:53;;;;;;;2.97;1.10;;;16.60;58.30;;;;;;5054830;28;20214;-72
2022/10/09 01:04:20;;;;;;;4.67;1.20;;;16.90;56.80;;;;;;5052787;28;20176;-72
2022/10/09 01:07:10;;;;;;;4.20;1.10;;;16.50;58.20;;;;;;5038539;28;20515;-71
2022/10/09 01:09:40;;;;;;;1.33;0.80;;;17.00;58.70;;;;;;5047526;28;20177;-72
2022/10/09 01:12:33;;;;;;;3.90;1.63;;;16.70;57.20;;;;;;5039550;28;20263;-72
2022/10/09 01:15:09;;;;;;;4.03;1.43;;;16.60;57.90;;;;;;5051636;28;20244;-71
2022/10/09 01:18:10;;;;;;;4.07;1.37;;;16.90;56.80;;;;;;5054185;28;20184;-72
2022/10/09 01:21:11;;;;;;;3.07;1.13;;;17.10;57.80;;;;;;5048136;28;20313;-72
2022/10/09 01:24:00;;;;;;;6.40;1.43;;;17.20;56.70;;;;;;5033158;28;20181;-72
2022/10/09 01:27:07;;;;;;;3.47;1.00;;;17.20;55.60;;;;;;5044798;28;20511;-72
2022/10/09 01:29:45;;;;;;;2.67;1.00;;;17.60;55.40;;;;;;5052541;28;20175;-70
2022/10/09 01:32:21;;;;;;;4.03;1.23;;;17.40;54.70;;;;;;5051001;28;20618;-72
2022/10/09 01:34:52;;;;;;;4.87;1.10;;;17.60;54.80;;;;;;5044614;28;20626;-72
2022/10/09 01:37:21;;;;;;;4.27;1.30;;;17.90;54.70;;;;;;5050984;28;20187;-73
2022/10/09 01:39:49;;;;;;;5.57;1.43;;;18.10;54.00;;;;;;5054001;28;20528;-72
2022/10/09 01:42:20;;;;;;;3.30;1.10;;;17.90;54.20;;;;;;5073736;28;20217;-72
2022/10/09 01:44:47;;;;;;;3.10;1.20;;;17.90;54.40;;;;;;5043537;28;20176;-71
2022/10/09 01:47:20;;;;;;;3.73;1.20;;;17.90;54.90;;;;;;5043935;28;20266;-73
2022/10/09 01:50:10;;;;;;;4.00;1.13;;;17.70;55.40;;;;;;5053647;28;20167;-73
2022/10/09 01:52:40;;;;;;;3.67;0.80;;;17.30;54.50;;;;;;5052535;28;20182;-72
2022/10/09 01:55:17;;;;;;;3.73;1.20;;;17.00;55.60;;;;;;5049606;28;20590;-70
2022/10/09 01:57:57;;;;;;;5.13;1.43;;;16.90;55.30;;;;;;5053500;28;20656;-72
2022/10/09 02:00:25;;;;;;;5.23;1.43;;;17.00;56.20;;;;;;5041791;28;20230;-72
2022/10/09 02:02:54;;;;;;;3.37;1.40;;;17.10;56.00;;;;;;5053187;28;20189;-72
2022/10/09 02:05:28;;;;;;;2.53;1.00;;;17.50;56.50;;;;;;5050986;28;20732;-72
2022/10/09 02:07:57;;;;;;;4.33;1.33;;;17.50;55.90;;;;;;5053451;28;20672;-72
2022/10/09 02:10:26;;;;;;;5.57;1.10;;;17.40;57.60;;;;;;5052026;28;20186;-72
2022/10/09 02:12:59;;;;;;;4.03;1.20;;;17.30;56.30;;;;;;5044720;28;20206;-72
2022/10/09 02:15:40;;;;;;;4.67;1.30;;;17.10;58.10;;;;;;5053340;28;20688;-72
2022/10/09 02:18:15;;;;;;;3.67;1.30;;;16.80;59.20;;;;;;5043578;28;20186;-69
2022/10/09 02:20:50;;;;;;;2.30;1.33;;;16.50;60.10;;;;;;5046233;28;20539;-72
2022/10/09 02:23:19;;;;;;;3.13;1.10;;;16.30;60.50;;;;;;5044527;28;20252;-72
2022/10/09 02:25:46;;;;;;;8.53;1.53;;;16.30;61.10;;;;;;5041631;28;20576;-71
2022/10/09 02:28:14;;;;;;;3.43;1.17;;;16.30;61.90;;;;;;5042453;28;20665;-72
2022/10/09 02:31:06;;;;;;;4.60;1.33;;;16.20;61.70;;;;;;5037676;28;20208;-72
2022/10/09 02:33:34;;;;;;;3.70;1.10;;;16.10;61.10;;;;;;5053118;28;20169;-72
2022/10/09 02:36:02;;;;;;;5.67;1.67;;;16.20;61.40;;;;;;5048100;28;20594;-72
2022/10/09 02:38:29;;;;;;;5.43;1.30;;;16.40;60.90;;;;;;5053134;28;20216;-72
2022/10/09 02:41:01;;;;;;;4.97;1.13;;;16.50;60.00;;;;;;5049112;28;20180;-72
2022/10/09 02:43:29;;;;;;;4.43;1.40;;;16.70;60.00;;;;;;5041623;28;20226;-72
2022/10/09 02:45:56;;;;;;;3.57;1.10;;;16.80;59.00;;;;;;5043896;28;20620;-71
2022/10/09 02:48:23;;;;;;;3.27;1.30;;;17.00;59.70;;;;;;5047131;28;20192;-72
2022/10/09 02:50:51;;;;;;;4.40;1.40;;;17.10;58.90;;;;;;5051200;28;20186;-72
2022/10/09 02:53:18;;;;;;;3.50;1.20;;;17.10;58.50;;;;;;5052745;28;20542;-73
2022/10/09 02:55:46;;;;;;;2.97;1.10;;;17.00;59.10;;;;;;5051109;28;20203;-71
2022/10/09 02:58:13;;;;;;;2.63;1.00;;;17.00;59.30;;;;;;5048427;28;20543;-72
2022/10/09 03:00:41;;;;;;;3.57;1.63;;;17.10;58.70;;;;;;5039548;28;20727;-72
2022/10/09 03:03:08;;;;;;;3.40;1.23;;;17.00;59.50;;;;;;5041731;28;20220;-72
2022/10/09 03:05:35;;;;;;;4.27;1.20;;;16.80;59.80;;;;;;5051594;28;20198;-71
2022/10/09 03:08:02;;;;;;;6.33;1.20;;;16.70;58.90;;;;;;5052314;28;20537;-72
2022/10/09 03:10:31;;;;;;;2.93;1.03;;;16.80;59.10;;;;;;5051075;28;20187;-71
2022/10/09 03:12:58;;;;;;;4.07;1.20;;;16.80;58.40;;;;;;5049195;28;20575;-71
2022/10/09 03:15:26;;;;;;;3.90;1.00;;;16.80;58.70;;;;;;5051932;28;20200;-72
2022/10/09 03:17:54;;;;;;;4.00;1.10;;;16.70;58.30;;;;;;5052252;28;20186;-72
2022/10/09 03:20:21;;;;;;;2.13;1.30;;;16.60;57.60;;;;;;5040745;28;20178;-73
2022/10/09 03:22:48;;;;;;;4.60;1.30;;;16.50;58.30;;;;;;5032302;28;20187;-72
2022/10/09 03:25:16;;;;;;;3.10;1.50;;;16.50;58.30;;;;;;5049238;28;20524;-72
2022/10/09 03:27:43;;;;;;;3.50;1.30;;;16.70;58.90;;;;;;5052701;28;20191;-71
2022/10/09 03:30:11;;;;;;;3.03;1.40;;;16.60;58.20;;;;;;5051852;28;20186;-72
2022/10/09 03:32:38;;;;;;;3.33;1.20;;;16.60;59.10;;;;;;5052044;28;20620;-72
2022/10/09 03:35:06;;;;;;;6.93;1.60;;;16.80;59.40;;;;;;5051430;28;20195;-71
2022/10/09 03:37:33;;;;;;;2.57;1.20;;;16.70;58.40;;;;;;5050507;28;20186;-71
2022/10/09 03:40:01;;;;;;;3.13;1.20;;;17.00;57.90;;;;;;5052551;28;20188;-72
2022/10/09 03:42:28;;;;;;;5.23;1.37;;;17.40;57.00;;;;;;5052051;28;20245;-73
2022/10/09 03:44:59;;;;;;;5.20;1.20;;;17.90;55.20;;;;;;5052593;28;20665;-73
2022/10/09 03:47:26;;;;;;;4.77;1.10;;;18.30;53.70;;;;;;5051108;28;20180;-73
2022/10/09 03:49:54;;;;;;;3.50;1.10;;;18.90;52.30;;;;;;5055036;28;20317;-72
2022/10/09 03:52:21;;;;;;;5.43;1.03;;;19.10;51.90;;;;;;5056232;28;20188;-73
2022/10/09 03:54:49;;;;;;;2.87;0.87;;;19.70;50.70;;;;;;5053917;28;20180;-70
2022/10/09 03:57:16;;;;;;;2.73;1.00;;;20.30;47.70;;;;;;5054851;28;20219;-70
2022/10/09 03:59:43;;;;;;;3.87;1.13;;;20.30;47.10;;;;;;5053134;28;20677;-70
2022/10/09 04:02:10;;;;;;;4.97;1.00;;;21.00;45.60;;;;;;5055228;28;20248;-72
2022/10/09 04:04:38;;;;;;;4.30;1.10;;;21.40;44.30;;;;;;5055760;28;20182;-72
2022/10/09 04:07:05;;;;;;;3.23;1.00;;;21.80;43.70;;;;;;5052837;28;20271;-73
2022/10/09 04:09:32;;;;;;;3.30;1.07;;;20.90;46.00;;;;;;5051671;28;20186;-72
2022/10/09 04:12:00;;;;;;;4.33;1.00;;;21.20;45.80;;;;;;5049695;28;20276;-72
2022/10/09 04:14:27;;;;;;;4.40;1.07;;;21.70;44.30;;;;;;5055520;28;20180;-70
2022/10/09 04:16:54;;;;;;;1.77;0.87;;;20.80;47.80;;;;;;5055527;28;20233;-71
2022/10/09 04:19:22;;;;;;;4.47;1.20;;;21.70;46.40;;;;;;5055617;28;20234;-72
2022/10/09 04:21:49;;;;;;;3.50;0.80;;;22.00;43.90;;;;;;5055279;28;20180;-74
2022/10/09 04:24:16;;;;;;;3.30;1.10;;;21.80;44.20;;;;;;5055584;28;20187;-71
2022/10/09 04:26:44;;;;;;;5.07;1.03;;;21.80;45.00;;;;;;5055459;28;20190;-71
2022/10/09 04:29:11;;;;;;;4.53;1.13;;;21.80;44.90;;;;;;5054566;28;20270;-71
2022/10/09 04:31:39;;;;;;;3.73;0.80;;;20.80;47.40;;;;;;5044737;28;20255;-71
2022/10/09 04:34:06;;;;;;;4.73;1.40;;;20.10;48.90;;;;;;5055084;28;20220;-70
2022/10/09 04:36:33;;;;;;;3.30;1.10;;;19.70;51.00;;;;;;5055376;28;20216;-71
2022/10/09 04:39:01;;;;;;;2.77;1.20;;;19.30;52.20;;;;;;5054979;28;20187;-71
2022/10/09 04:41:28;;;;;;;3.87;0.90;;;19.70;51.70;;;;;;5054817;28;20266;-70
2022/10/09 04:43:56;;;;;;;5.30;0.97;;;20.40;48.00;;;;;;5054648;28;20224;-70
2022/10/09 04:46:24;;;;;;;3.13;1.07;;;21.10;47.50;;;;;;5054936;28;20250;-71
2022/10/09 04:48:51;;;;;;;4.30;1.00;;;21.70;46.40;;;;;;5054744;28;20646;-71
2022/10/09 04:51:19;;;;;;;1.30;0.63;;;22.30;42.80;;;;;;5053285;28;20272;-72
2022/10/09 04:53:47;;;;;;;7.00;1.30;;;21.70;44.80;;;;;;5055023;28;20175;-70
2022/10/09 04:56:17;;;;;;;1.20;0.70;;;21.00;46.30;;;;;;5051399;28;20634;-69
2022/10/09 04:58:45;;;;;;;3.97;1.27;;;21.00;46.60;;;;;;5050084;28;20180;-72
2022/10/09 05:01:16;;;;;;;4.53;0.80;;;20.50;45.70;;;;;;5051630;28;20185;-71
2022/10/09 05:03:43;;;;;;;3.97;1.00;;;20.20;47.50;;;;;;5042429;28;20180;-71
2022/10/09 05:06:13;;;;;;;6.27;1.17;;;19.90;47.80;;;;;;5054170;28;20188;-71
2022/10/09 05:08:41;;;;;;;3.47;1.07;;;18.90;52.20;;;;;;5043055;28;20258;-70
2022/10/09 05:11:20;;;;;;;5.70;1.30;;;18.50;53.90;;;;;;5054613;28;20187;-70
2022/10/09 05:13:51;;;;;;;7.30;1.20;;;18.00;55.40;;;;;;5054625;28;20283;-70
2022/10/09 05:16:30;;;;;;;3.97;1.30;;;18.00;55.20;;;;;;5054566;28;20219;-72
2022/10/09 05:18:59;;;;;;;4.80;1.23;;;17.70;56.50;;;;;;5042887;28;20188;-71
2022/10/09 05:21:28;;;;;;;5.30;1.33;;;17.60;57.50;;;;;;5049872;28;20187;-71
2022/10/09 05:23:56;;;;;;;3.20;1.17;;;17.50;58.00;;;;;;5052624;28;20291;-71
2022/10/09 05:26:25;;;;;;;4.40;1.30;;;17.20;58.80;;;;;;5053773;28;20180;-70
2022/10/09 05:28:52;;;;;;;6.53;1.53;;;17.10;58.30;;;;;;5053214;28;20203;-70
2022/10/09 05:31:25;;;;;;;12.87;1.33;;;17.00;59.00;;;;;;5052646;28;20194;-70
2022/10/09 05:33:54;;;;;;;6.70;1.30;;;17.00;58.50;;;;;;5044629;28;20184;-72
2022/10/09 05:36:21;;;;;;;6.13;1.53;;;17.20;58.20;;;;;;5050264;28;20231;-69
2022/10/09 05:38:49;;;;;;;4.07;1.60;;;17.20;58.30;;;;;;5047625;28;20203;-71
2022/10/09 05:41:18;;;;;;;8.90;1.10;;;17.30;59.60;;;;;;5045631;28;20183;-70
2022/10/09 05:43:48;;;;;;;3.83;1.33;;;17.20;59.10;;;;;;5053892;28;20228;-70
2022/10/09 05:46:22;;;;;;;6.73;1.83;;;17.10;58.50;;;;;;5053917;28;20221;-70
2022/10/09 05:48:59;;;;;;;9.47;2.03;;;17.00;58.50;;;;;;5053569;28;20629;-71
2022/10/09 05:51:31;;;;;;;6.03;1.37;;;17.70;57.00;;;;;;5053484;28;20191;-70
2022/10/09 05:54:00;;;;;;;5.87;1.40;;;19.40;52.80;;;;;;5055973;28;20178;-72
2022/10/09 05:56:33;;;;;;;3.17;1.43;;;19.30;50.00;;;;;;5057041;28;20571;-71
2022/10/09 05:59:02;;;;;;;4.50;1.37;;;18.70;51.70;;;;;;5053519;28;20177;-69
2022/10/09 06:01:33;;;;;;;7.57;1.40;;;18.10;53.90;;;;;;5049545;28;20631;-69
2022/10/09 06:04:01;;;;;;;6.47;1.53;;;18.00;54.70;;;;;;5053269;28;20172;-70
2022/10/09 06:06:31;;;;;;;6.93;1.30;;;18.30;54.40;;;;;;5055451;28;20697;-70
2022/10/09 06:08:59;;;;;;;3.17;1.10;;;18.30;53.10;;;;;;5050310;28;20263;-71
2022/10/09 06:11:30;;;;;;;7.37;1.20;;;18.10;53.90;;;;;;5044350;28;20186;-70
2022/10/09 06:13:59;;;;;;;7.90;1.53;;;18.10;54.80;;;;;;5051354;28;20673;-71
2022/10/09 06:16:29;;;;;;;4.87;1.20;;;17.80;54.90;;;;;;5052025;28;20216;-70
2022/10/09 06:18:58;;;;;;;8.77;1.73;;;17.50;56.90;;;;;;5051193;28;20230;-70
2022/10/09 06:21:28;;;;;;;6.60;1.70;;;17.30;57.50;;;;;;5051432;28;20208;-70
2022/10/09 06:23:57;;;;;;;5.20;1.20;;;17.20;57.40;;;;;;5049370;28;20638;-70
2022/10/09 06:26:29;;;;;;;6.90;1.43;;;17.00;57.60;;;;;;5053379;28;20177;-70
2022/10/09 06:28:58;;;;;;;5.63;1.17;;;17.00;57.50;;;;;;5048875;28;20193;-71
2022/10/09 06:31:27;;;;;;;3.33;1.20;;;17.00;57.90;;;;;;5053010;28;20240;-71
2022/10/09 06:33:57;;;;;;;5.53;1.50;;;17.00;59.00;;;;;;5056188;28;20316;-71
2022/10/09 06:36:34;;;;;;;7.57;1.53;;;17.00;58.00;;;;;;5052977;28;20218;-71
2022/10/09 06:39:05;;;;;;;7.43;1.60;;;17.00;57.90;;;;;;5053100;28;20174;-70
2022/10/09 06:41:33;;;;;;;4.17;1.60;;;17.00;58.30;;;;;;5052863;28;20194;-71
2022/10/09 06:44:03;;;;;;;4.70;1.30;;;16.80;58.50;;;;;;5052757;28;20230;-71
2022/10/09 06:46:36;;;;;;;7.40;1.57;;;16.80;58.60;;;;;;5052728;28;20191;-69
2022/10/09 06:49:06;;;;;;;6.13;1.40;;;17.20;58.20;;;;;;5051516;28;20187;-71
2022/10/09 06:51:34;;;;;;;6.80;1.47;;;18.60;53.90;;;;;;5053334;28;20543;-71
2022/10/09 06:54:08;;;;;;;7.70;1.70;;;19.20;51.10;;;;;;5052820;28;20176;-71
2022/10/09 06:56:35;;;;;;;2.90;1.37;;;19.70;50.90;;;;;;5052549;28;20215;-71
2022/10/09 06:59:05;;;;;;;6.17;1.53;;;20.30;47.80;;;;;;5052956;28;20254;-71
2022/10/09 07:01:33;;;;;;;6.43;1.30;;;20.80;47.40;;;;;;5052586;28;20176;-71
2022/10/09 07:04:08;;;;;;;3.07;1.30;;;20.40;47.40;;;;;;5052653;28;20180;-71
2022/10/09 07:06:41;;;;;;;3.47;1.30;;;20.50;46.20;;;;;;5064528;28;20182;-71
2022/10/09 07:09:11;;;;;;;4.20;1.20;;;20.80;45.80;;;;;;5053408;28;20196;-71
2022/10/09 07:11:43;;;;;;;8.73;1.67;;;20.80;46.40;;;;;;5045963;28;20215;-71
2022/10/09 07:14:12;;;;;;;4.47;1.63;;;20.80;47.30;;;;;;5051409;28;20198;-70
2022/10/09 07:16:42;;;;;;;5.90;1.57;;;20.60;47.90;;;;;;5052090;28;20286;-71
2022/10/09 07:19:11;;;;;;;5.70;1.50;;;20.60;48.50;;;;;;5052166;28;20254;-70
2022/10/09 07:21:41;;;;;;;5.30;1.43;;;20.30;49.00;;;;;;5052573;28;20279;-70
2022/10/09 07:24:09;;;;;;;5.63;1.50;;;20.20;48.70;;;;;;5065028;28;20175;-71
2022/10/09 07:26:40;;;;;;;7.97;1.60;;;20.00;48.90;;;;;;5056526;28;20188;-71
2022/10/09 07:29:09;;;;;;;5.70;1.67;;;18.90;51.50;;;;;;5039172;28;20186;-70
2022/10/09 07:31:37;;;;;;;6.77;1.40;;;17.90;54.30;;;;;;5051140;28;20219;-70
2022/10/09 07:34:05;;;;;;;10.27;1.90;;;17.40;55.90;;;;;;5051318;28;20183;-70
2022/10/09 07:36:32;;;;;;;8.80;1.67;;;16.90;57.40;;;;;;5050569;28;20261;-70
2022/10/09 07:39:00;;;;;;;10.67;1.73;;;16.60;59.40;;;;;;5053074;28;20193;-71
2022/10/09 07:41:29;;;;;;;7.93;1.80;;;16.30;60.10;;;;;;5052393;28;20543;-70
2022/10/09 07:43:57;;;;;;;10.67;1.93;;;16.10;60.60;;;;;;5052377;28;20227;-70
2022/10/09 07:46:26;;;;;;;7.30;1.70;;;16.00;61.80;;;;;;5047682;28;20197;-69
2022/10/09 07:48:54;;;;;;;10.10;2.10;;;15.80;62.90;;;;;;5051849;28;20688;-70
2022/10/09 07:51:24;;;;;;;6.20;2.10;;;15.70;62.70;;;;;;5052164;28;20202;-70
2022/10/09 07:53:52;;;;;;;9.57;1.73;;;15.60;63.20;;;;;;5043480;28;20186;-70
2022/10/09 07:56:31;;;;;;;11.63;2.17;;;15.50;63.90;;;;;;5051684;28;20562;-70
2022/10/09 07:59:04;;;;;;;11.83;1.90;;;15.40;63.90;;;;;;5052245;28;20184;-71
2022/10/09 08:01:33;;;;;;;14.43;2.70;;;15.40;64.20;;;;;;5049317;28;20188;-70
2022/10/09 08:04:01;;;;;;;8.97;2.63;;;15.30;64.30;;;;;;5046540;28;20506;-70
2022/10/09 08:06:29;;;;;;;10.33;2.30;;;15.30;64.60;;;;;;5050871;28;20674;-70
2022/10/09 08:08:58;;;;;;;10.73;2.77;;;15.20;65.00;;;;;;5054265;28;20489;-70
2022/10/09 08:11:28;;;;;;;4.30;1.60;;;15.30;65.30;;;;;;5048532;28;20241;-71
2022/10/09 08:13:56;;;;;;;11.70;2.80;;;15.30;64.90;;;;;;5050773;28;20195;-70
2022/10/09 08:16:25;;;;;;;10.03;2.50;;;15.40;65.50;;;;;;5051731;28;20640;-71
2022/10/09 08:18:57;;;;;;;10.70;3.20;;;15.40;65.70;;;;;;5049201;28;20181;-76
2022/10/09 08:21:27;;;;;;;14.23;3.00;;;15.50;66.10;;;;;;5047935;28;20652;-70
2022/10/09 08:23:56;;;;;;;15.20;2.93;;;15.60;65.80;;;;;;5052148;28;20173;-71
2022/10/09 08:26:25;;;;;;;14.00;2.90;;;15.60;66.50;;;;;;5053621;28;20183;-73
2022/10/09 08:28:55;;;;;;;13.80;3.03;;;15.70;66.60;;;;;;5041873;28;20177;-73
2022/10/09 08:31:23;;;;;;;8.73;2.90;;;15.70;66.70;;;;;;5051381;28;20239;-71
2022/10/09 08:33:55;;;;;;;12.77;3.43;;;15.70;66.90;;;;;;5051405;28;20263;-71
2022/10/09 08:36:23;;;;;;;11.33;3.17;;;15.70;67.50;;;;;;5053794;28;20213;-70
2022/10/09 08:38:52;;;;;;;14.73;3.10;;;15.60;67.20;;;;;;5055065;28;20271;-70
2022/10/09 08:41:37;;;;;;;13.40;2.77;;;15.60;67.60;;;;;;5048878;28;20184;-70
2022/10/09 08:44:26;;;;;;;10.47;2.83;;;15.60;67.30;;;;;;5054675;28;20291;-70
2022/10/09 08:46:58;;;;;;;8.37;2.40;;;15.60;67.80;;;;;;5054194;28;20182;-71
2022/10/09 08:49:49;;;;;;;9.73;2.50;;;15.50;67.30;;;;;;5040649;28;20218;-70
2022/10/09 08:52:21;;;;;;;12.80;2.50;;;15.40;67.40;;;;;;5054616;28;20188;-71
2022/10/09 08:54:49;;;;;;;12.03;3.00;;;15.40;67.40;;;;;;5052636;28;20168;-70
2022/10/09 08:57:17;;;;;;;10.40;2.83;;;15.60;67.70;;;;;;5049246;28;20208;-71
2022/10/09 08:59:45;;;;;;;11.13;2.70;;;15.50;67.30;;;;;;5054353;28;20177;-70
2022/10/09 09:02:26;;;;;;;12.93;2.87;;;15.50;67.80;;;;;;5061149;28;20201;-71
2022/10/09 09:05:34;;;;;;;11.70;3.20;;;15.50;68.00;;;;;;5041567;28;20176;-71
2022/10/09 09:08:22;;;;;;;14.63;2.53;;;15.50;67.20;;;;;;5053886;28;20665;-70
2022/10/09 09:11:16;;;;;;;14.30;3.40;;;15.50;68.20;;;;;;5054606;28;20222;-71
2022/10/09 09:14:16;;;;;;;11.50;3.10;;;15.60;68.10;;;;;;5041039;28;20176;-70
2022/10/09 09:17:04;;;;;;;17.97;3.43;;;15.50;68.30;;;;;;5054543;28;20678;-71
2022/10/09 09:20:05;;;;;;;14.00;3.10;;;15.50;68.90;;;;;;5054511;28;20176;-69
2022/10/09 09:22:33;;;;;;;12.27;2.60;;;15.50;68.10;;;;;;5043815;28;20538;-70
2022/10/09 09:25:17;;;;;;;9.60;2.53;;;15.30;68.80;;;;;;5055281;28;20187;-70
2022/10/09 09:27:45;;;;;;;10.10;3.03;;;15.30;68.80;;;;;;5053643;28;20230;-70
2022/10/09 09:30:44;;;;;;;15.63;2.97;;;15.30;69.00;;;;;;5054796;28;20275;-70
2022/10/09 09:33:21;;;;;;;8.20;2.77;;;15.10;69.30;;;;;;5052794;28;20262;-70
2022/10/09 09:36:06;;;;;;;11.10;2.70;;;15.10;69.80;;;;;;5040522;28;20566;-70
2022/10/09 09:38:34;;;;;;;16.10;2.80;;;15.10;70.50;;;;;;5054363;28;20186;-69
2022/10/09 09:41:03;;;;;;;14.13;2.97;;;15.00;70.60;;;;;;5050526;28;20277;-69
2022/10/09 09:43:31;;;;;;;12.17;2.73;;;15.00;71.00;;;;;;5057214;28;20306;-70
2022/10/09 09:46:01;;;;;;;8.97;2.30;;;15.00;71.20;;;;;;5053689;28;20176;-70
2022/10/09 09:48:41;;;;;;;10.60;2.50;;;15.00;70.90;;;;;;5054597;28;20184;-70
2022/10/09 09:51:14;;;;;;;6.30;2.37;;;15.00;70.80;;;;;;5054084;28;20203;-70
2022/10/09 09:54:06;;;;;;;8.67;2.93;;;14.80;70.70;;;;;;5054771;28;20512;-70
2022/10/09 09:56:42;;;;;;;12.90;3.10;;;14.80;71.10;;;;;;5043165;28;20221;-70
2022/10/09 09:59:32;;;;;;;12.20;3.20;;;14.80;71.70;;;;;;5053914;28;20563;-71
2022/10/09 10:02:05;;;;;;;17.07;2.97;;;14.80;72.20;;;;;;5051962;28;20192;-70
2022/10/09 10:04:33;;;;;;;14.37;3.10;;;14.80;72.40;;;;;;5039578;28;20172;-70
2022/10/09 10:07:01;;;;;;;12.13;2.47;;;14.80;72.90;;;;;;5053651;28;20622;-70
2022/10/09 10:09:30;;;;;;;8.43;2.47;;;14.70;72.80;;;;;;5053826;28;20173;-70
2022/10/09 10:12:02;;;;;;;7.37;1.90;;;14.80;73.30;;;;;;5050385;28;20187;-70
2022/10/09 10:14:31;;;;;;;12.77;2.53;;;14.70;73.20;;;;;;5052243;28;20657;-70
2022/10/09 10:17:01;;;;;;;11.80;2.23;;;14.60;73.10;;;;;;5050871;28;20610;-71
2022/10/09 10:19:37;;;;;;;8.73;2.07;;;14.60;73.20;;;;;;5053119;28;20176;-70
2022/10/09 10:22:24;;;;;;;10.83;2.90;;;14.60;73.60;;;;;;5053143;28;20199;-70
2022/10/09 10:24:54;;;;;;;9.87;2.50;;;14.60;74.20;;;;;;5053410;28;20278;-70
2022/10/09 10:27:42;;;;;;;8.83;2.20;;;14.60;74.20;;;;;;5039984;28;20172;-70
2022/10/09 10:30:15;;;;;;;8.60;2.37;;;14.40;74.00;;;;;;5053075;28;20183;-70
2022/10/09 10:33:03;;;;;;;12.20;2.33;;;14.40;74.40;;;;;;5052031;28;20700;-72
2022/10/09 10:35:37;;;;;;;9.83;2.40;;;14.40;74.60;;;;;;5052039;28;20253;-70
2022/10/09 10:38:26;;;;;;;16.03;2.63;;;14.30;75.20;;;;;;5047307;28;20197;-71
2022/10/09 10:41:16;;;;;;;8.77;2.40;;;14.40;75.60;;;;;;5051831;28;20184;-71
2022/10/09 10:44:03;;;;;;;7.00;2.50;;;14.30;75.30;;;;;;5050600;28;20230;-71
2022/10/09 10:46:51;;;;;;;15.03;2.83;;;14.40;75.80;;;;;;5046084;28;20658;-71
2022/10/09 10:49:21;;;;;;;9.90;2.90;;;14.40;76.50;;;;;;5046426;28;20182;-71
2022/10/09 10:52:10;;;;;;;11.03;2.70;;;14.40;76.70;;;;;;5056433;28;20179;-71
2022/10/09 10:54:54;;;;;;;15.13;3.20;;;14.40;76.60;;;;;;5057315;28;20179;-72
2022/10/09 10:57:34;;;;;;;14.97;2.83;;;14.30;76.30;;;;;;5041490;28;20217;-72
2022/10/09 11:00:09;;;;;;;9.23;3.13;;;14.40;76.70;;;;;;5039598;28;21984;-71
2022/10/09 11:03:05;;;;;;;11.20;3.20;;;14.40;76.40;;;;;;5038619;28;20183;-72
2022/10/09 11:05:52;;;;;;;12.70;3.43;;;14.40;76.00;;;;;;5052469;28;20599;-71
2022/10/09 11:08:57;;;;;;;11.77;4.03;;;14.30;75.60;;;;;;5052296;28;20187;-73
2022/10/09 11:11:32;;;;;;;13.33;3.57;;;14.30;76.30;;;;;;5030579;28;20231;-72
2022/10/09 11:14:28;;;;;;;10.87;3.30;;;14.30;76.60;;;;;;5049698;28;20252;-71
2022/10/09 11:17:08;;;;;;;10.57;3.37;;;14.30;77.30;;;;;;5051990;28;20755;-70
2022/10/09 11:19:47;;;;;;;13.00;3.93;;;14.30;76.80;;;;;;5050574;28;20172;-71
2022/10/09 11:22:56;;;;;;;11.97;4.30;;;14.30;77.30;;;;;;5043078;28;20190;-71
2022/10/09 11:25:34;;;;;;;12.60;4.30;;;14.30;78.60;;;;;;5036749;28;20199;-71
2022/10/09 11:28:26;;;;;;;10.63;3.27;;;14.30;79.30;;;;;;5043568;28;20182;-71
2022/10/09 11:31:03;;;;;;;14.83;4.00;;;14.20;79.20;;;;;;5044986;28;20188;-70
2022/10/09 11:34:04;;;;;;;8.40;2.90;;;14.30;79.10;;;;;;5047044;28;20309;-70
2022/10/09 11:36:41;;;;;;;18.30;3.87;;;14.30;78.90;;;;;;5047646;28;20219;-71
2022/10/09 11:39:14;;;;;;;13.40;3.27;;;14.30;78.90;;;;;;5040555;28;20172;-70
2022/10/09 11:41:45;;;;;;;10.47;3.23;;;14.30;79.20;;;;;;5051798;28;20183;-70
2022/10/09 11:44:36;;;;;;;6.13;2.60;;;14.30;79.00;;;;;;5051981;28;20335;-70
2022/10/09 11:47:22;;;;;;;9.77;3.20;;;14.30;78.60;;;;;;5052151;28;20183;-70
2022/10/09 11:50:07;;;;;;;11.70;2.77;;;14.30;78.40;;;;;;5051988;28;20179;-70
2022/10/09 11:52:47;;;;;;;11.67;3.27;;;14.30;78.30;;;;;;5043410;28;20519;-71
2022/10/09 11:55:27;;;;;;;10.03;2.87;;;14.40;78.00;;;;;;5041221;28;20616;-71
2022/10/09 11:57:55;;;;;;;14.30;3.03;;;14.30;78.00;;;;;;5052128;28;20180;-71
2022/10/09 12:00:35;;;;;;;13.93;3.10;;;14.30;77.90;;;;;;5050278;28;20172;-71
2022/10/09 12:03:06;;;;;;;11.97;3.60;;;14.40;77.60;;;;;;5054251;28;20184;-71
2022/10/09 12:05:43;;;;;;;9.07;2.80;;;14.30;77.30;;;;;;5040438;28;20184;-70
2022/10/09 12:08:17;;;;;;;8.37;2.90;;;14.30;76.80;;;;;;5049869;28;20538;-71
2022/10/09 12:10:54;;;;;;;10.40;3.30;;;14.30;77.80;;;;;;5055305;28;20211;-70
2022/10/09 12:13:36;;;;;;;7.97;2.70;;;14.30;78.90;;;;;;5051418;28;20184;-71
2022/10/09 12:16:06;;;;;;;10.63;3.30;;;14.20;78.50;;;;;;5054976;28;20219;-71
2022/10/09 12:18:42;;;;;;;11.37;3.13;;;14.10;79.00;;;;;;5055466;28;20167;-71
2022/10/09 12:21:24;;;;;;;14.87;3.23;;;14.00;78.40;;;;;;5046098;28;20243;-72
2022/10/09 12:23:52;;;;;;;14.80;3.70;;;13.90;78.60;;;;;;5054638;28;20203;-71
2022/10/09 12:26:21;;;;;;;11.10;3.87;;;13.90;78.70;;;;;;5055693;28;20183;-71
2022/10/09 12:28:53;;;;;;;17.07;3.80;;;13.80;79.50;;;;;;5054575;28;20227;-71
2022/10/09 12:31:29;;;;;;;11.70;3.30;;;13.70;79.90;;;;;;5055047;28;20576;-71
2022/10/09 12:34:22;;;;;;;14.40;3.80;;;13.70;80.20;;;;;;5048963;28;20215;-71
2022/10/09 12:36:49;;;;;;;11.20;3.33;;;13.60;80.30;;;;;;5054774;28;20215;-71
2022/10/09 12:39:23;;;;;;;12.20;3.63;;;13.50;80.90;;;;;;5055432;28;20168;-71
2022/10/09 12:41:58;;;;;;;13.50;3.87;;;13.40;80.90;;;;;;5054773;28;20293;-71
2022/10/09 12:44:40;;;;;;;8.83;3.80;;;13.30;81.10;;;;;;5055158;28;20171;-71
2022/10/09 12:47:16;;;;;;;13.47;3.80;;;13.20;81.70;;;;;;5055333;28;20214;-72
2022/10/09 12:50:03;;;;;;;8.53;3.47;;;13.20;82.40;;;;;;5044831;28;20185;-71
2022/10/09 12:52:32;;;;;;;8.77;3.30;;;13.10;82.60;;;;;;5053125;28;20527;-71
2022/10/09 12:55:01;;;;;;;13.10;3.87;;;13.10;82.80;;;;;;5046300;28;20168;-71
2022/10/09 12:57:29;;;;;;;16.17;4.20;;;13.00;82.80;;;;;;5051847;28;20239;-72
2022/10/09 12:59:57;;;;;;;11.03;3.97;;;12.90;82.80;;;;;;5054762;28;20173;-71
2022/10/09 13:02:24;;;;;;;16.47;4.20;;;12.90;83.10;;;;;;5054462;28;20184;-71
2022/10/09 13:04:57;;;;;;;12.83;3.93;;;12.80;83.60;;;;;;5041239;28;20210;-72
2022/10/09 13:07:28;;;;;;;9.43;3.50;;;12.80;83.60;;;;;;5051330;28;20191;-71
2022/10/09 13:10:02;;;;;;;13.27;4.10;;;12.70;83.70;;;;;;5054192;28;20581;-72
2022/10/09 13:12:31;;;;;;;10.97;3.67;;;12.80;84.10;;;;;;5054628;28;20633;-72
2022/10/09 13:15:07;;;;;;;10.70;4.27;;;12.70;84.30;;;;;;5054330;28;20180;-72